^^
Saratoga-Weather Station Historical Data
Daily Summary for April 27, 2020 Units:  Metric    English   Both
Daily Weekly Monthly Yearly Custom
  High: Low: Average:
Temperature: 12 °C 7.6 °C 10.1 °C
Dew Point: 9.4 °C 6.3 °C 7.6 °C
Humidity: 93% 70% 85%
Wind Speed: 16.3km/h 0km/h 3.4km/h
Wind Gust: 20.9km/h - -
Wind- - South
Pressure: 1009.5 hPa 1006.1 hPa -
Precipitation: 1.5 mm    
Historical Graphs
 
 
Tabular Data for April 27, 2020
Time Temperature Dew Point Pressure Wind Wind Speed Wind Gust Humidity Rainfall Rate (Hourly) solar
00:02 8.3 °C 6.4 °C 1006.1 hPa NNE 3.2 km/h 6.4 km/h 88% 0.0 mm 0 W/m2
00:07 8.3 °C 6.4 °C 1006.1 hPa ESE 3.2 km/h 4.8 km/h 88% 0.0 mm 0 W/m2
00:12 8.2 °C 6.3 °C 1006.4 hPa NNW 7.9 km/h 8 km/h 88% 0.0 mm 0 W/m2
00:17 8.2 °C 6.3 °C 1006.4 hPa NNW 1.4 km/h 3.2 km/h 88% 0.0 mm 0 W/m2
00:22 8.2 °C 6.3 °C 1006.4 hPa WNW 7.9 km/h 8 km/h 88% 0.0 mm 0 W/m2
00:27 8.2 °C 6.3 °C 1006.4 hPa West 3.2 km/h 6.4 km/h 88% 0.0 mm 0 W/m2
00:32 8.2 °C 6.5 °C 1006.4 hPa NNE 1.4 km/h 4.8 km/h 89% 0.2 mm 0 W/m2
00:37 8.2 °C 6.7 °C 1006.4 hPa Calm   3.2 km/h 90% 0.2 mm 0 W/m2
00:42 8.1 °C 6.6 °C 1006.4 hPa Calm   4.8 km/h 90% 0.2 mm 0 W/m2
00:47 8.1 °C 6.6 °C 1006.4 hPa North 1.4 km/h 3.2 km/h 90% 0.2 mm 0 W/m2
00:52 8 °C 6.5 °C 1006.4 hPa North 3.2 km/h 6.4 km/h 90% 0.2 mm 0 W/m2
00:57 7.8 °C 6.3 °C 1006.4 hPa East 3.2 km/h 4.8 km/h 90% 0.2 mm 0 W/m2
01:02 7.7 °C 6.3 °C 1006.4 hPa SE 1.4 km/h 6.4 km/h 91% 0.2 mm 0 W/m2
01:12 7.6 °C 6.4 °C 1006.4 hPa Calm   1.6 km/h 92% 0.2 mm 0 W/m2
01:17 7.6 °C 6.4 °C 1006.4 hPa Calm   3.2 km/h 92% 0.2 mm 0 W/m2
01:22 7.6 °C 6.4 °C 1006.4 hPa Calm     92% 0.2 mm 0 W/m2
01:27 7.6 °C 6.4 °C 1006.4 hPa Calm   1.6 km/h 92% 0.2 mm 0 W/m2
01:32 7.6 °C 6.4 °C 1006.4 hPa NE 1.4 km/h 3.2 km/h 92% 0.0 mm 0 W/m2
01:37 7.6 °C 6.5 °C 1006.4 hPa West 1.4 km/h 4.8 km/h 93% 0.0 mm 0 W/m2
01:42 7.7 °C 6.6 °C 1006.4 hPa East 1.4 km/h 3.2 km/h 93% 0.0 mm 0 W/m2
01:47 7.8 °C 6.7 °C 1006.4 hPa Calm   4.8 km/h 93% 0.0 mm 0 W/m2
01:52 7.9 °C 6.7 °C 1006.4 hPa NW 1.4 km/h 3.2 km/h 92% 0.0 mm 0 W/m2
01:57 8 °C 6.8 °C 1006.4 hPa East 1.4 km/h 4.8 km/h 92% 0.0 mm 0 W/m2
02:02 8.1 °C 6.9 °C 1006.4 hPa Calm   1.6 km/h 92% 0.0 mm 0 W/m2
02:08 8.1 °C 6.9 °C 1006.4 hPa ESE 1.4 km/h 1.6 km/h 92% 0.0 mm 0 W/m2
02:13 8.2 °C 7 °C 1006.4 hPa NE 1.4 km/h 1.6 km/h 92% 0.0 mm 0 W/m2
02:18 8.2 °C 7 °C 1006.4 hPa Calm   4.8 km/h 92% 0.0 mm 0 W/m2
02:23 8.2 °C 7 °C 1006.4 hPa WNW 3.2 km/h 6.4 km/h 92% 0.0 mm 0 W/m2
02:28 8.3 °C 7.1 °C 1006.4 hPa NNE 1.4 km/h 4.8 km/h 92% 0.0 mm 0 W/m2
02:33 8.3 °C 7.1 °C 1006.4 hPa NNE 3.2 km/h 6.4 km/h 92% 0.0 mm 0 W/m2
02:38 8.3 °C 6.9 °C 1006.4 hPa North 3.2 km/h 4.8 km/h 91% 0.0 mm 0 W/m2
02:43 8.4 °C 7 °C 1006.8 hPa NW 6.4 km/h 12.9 km/h 91% 0.0 mm 0 W/m2
02:48 8.4 °C 7 °C 1006.4 hPa NNW 1.4 km/h 4.8 km/h 91% 0.0 mm 0 W/m2
02:53 8.4 °C 7 °C 1006.4 hPa NW 1.4 km/h 4.8 km/h 91% 0.0 mm 0 W/m2
02:58 8.5 °C 7.1 °C 1006.4 hPa NW 3.2 km/h 3.2 km/h 91% 0.0 mm 0 W/m2
03:03 8.5 °C 7.1 °C 1006.4 hPa North 3.2 km/h 6.4 km/h 91% 0.0 mm 0 W/m2
03:08 8.6 °C 7.2 °C 1006.4 hPa WSW 1.4 km/h 4.8 km/h 91% 0.0 mm 0 W/m2
03:13 8.6 °C 7.2 °C 1006.4 hPa Calm   6.4 km/h 91% 0.0 mm 0 W/m2
03:18 8.6 °C 7.2 °C 1006.4 hPa West 1.4 km/h 4.8 km/h 91% 0.0 mm 0 W/m2
03:23 8.6 °C 7.2 °C 1006.4 hPa Calm   3.2 km/h 91% 0.0 mm 0 W/m2
03:28 8.6 °C 7.2 °C 1006.4 hPa ENE 1.4 km/h 4.8 km/h 91% 0.0 mm 0 W/m2
03:33 8.6 °C 7.2 °C 1006.4 hPa North 1.4 km/h 3.2 km/h 91% 0.0 mm 0 W/m2
03:38 8.6 °C 7.2 °C 1006.4 hPa NW 1.4 km/h 6.4 km/h 91% 0.0 mm 0 W/m2
03:43 8.7 °C 7.3 °C 1006.4 hPa NNW 4.7 km/h 4.8 km/h 91% 0.0 mm 0 W/m2
03:48 8.7 °C 7.3 °C 1006.4 hPa ENE 1.4 km/h 6.4 km/h 91% 0.0 mm 0 W/m2
03:53 8.7 °C 7.3 °C 1006.4 hPa NNE 1.4 km/h 3.2 km/h 91% 0.0 mm 0 W/m2
03:58 8.7 °C 7.3 °C 1006.4 hPa NNW 3.2 km/h 4.8 km/h 91% 0.0 mm 0 W/m2
04:03 8.7 °C 7.3 °C 1006.4 hPa WNW 3.2 km/h 11.3 km/h 91% 0.0 mm 0 W/m2
04:08 8.7 °C 7.2 °C 1006.4 hPa West 1.4 km/h 4.8 km/h 90% 0.0 mm 0 W/m2
04:13 8.8 °C 7.4 °C 1006.4 hPa WNW 1.4 km/h 3.2 km/h 91% 0.0 mm 0 W/m2
04:18 8.8 °C 7.2 °C 1006.8 hPa NW 3.2 km/h 4.8 km/h 90% 0.0 mm 0 W/m2
04:23 8.8 °C 7.2 °C 1006.8 hPa NNW 1.4 km/h 3.2 km/h 90% 0.0 mm 0 W/m2
04:28 8.8 °C 7.2 °C 1006.8 hPa East 1.4 km/h 4.8 km/h 90% 0.0 mm 0 W/m2
04:33 8.8 °C 7.2 °C 1006.8 hPa Calm   1.6 km/h 90% 0.0 mm 0 W/m2
04:38 8.8 °C 7.2 °C 1006.8 hPa North 3.2 km/h 6.4 km/h 90% 0.0 mm 0 W/m2
04:43 8.9 °C 7.3 °C 1006.8 hPa NW 1.4 km/h 12.9 km/h 90% 0.0 mm 0 W/m2
04:48 8.9 °C 7.3 °C 1006.8 hPa WNW 3.2 km/h 3.2 km/h 90% 0.0 mm 0 W/m2
04:53 8.9 °C 7.5 °C 1006.8 hPa NW 1.4 km/h 4.8 km/h 91% 0.0 mm 0 W/m2
04:58 8.9 °C 7.3 °C 1006.8 hPa Calm   1.6 km/h 90% 0.0 mm 0 W/m2
05:03 8.8 °C 7.4 °C 1006.8 hPa NNE 3.2 km/h 4.8 km/h 91% 0.0 mm 0 W/m2
05:08 8.8 °C 7.4 °C 1006.8 hPa NW 1.4 km/h 6.4 km/h 91% 0.0 mm 0 W/m2
05:13 8.8 °C 7.4 °C 1006.8 hPa Calm   3.2 km/h 91% 0.0 mm 0 W/m2
05:19 8.8 °C 7.4 °C 1006.8 hPa Calm   4.8 km/h 91% 0.0 mm 0 W/m2
05:24 8.8 °C 7.4 °C 1006.8 hPa North 1.4 km/h 4.8 km/h 91% 0.0 mm 0 W/m2
05:29 8.8 °C 7.4 °C 1007.1 hPa NE 3.2 km/h 3.2 km/h 91% 0.0 mm 0 W/m2
05:34 8.8 °C 7.4 °C 1007.1 hPa NNW 4.7 km/h 4.8 km/h 91% 0.0 mm 0 W/m2
05:39 8.8 °C 7.4 °C 1007.1 hPa Calm   1.6 km/h 91% 0.0 mm 0 W/m2
05:44 8.8 °C 7.4 °C 1007.1 hPa NE 3.2 km/h 4.8 km/h 91% 0.0 mm 0 W/m2
05:49 8.8 °C 7.4 °C 1007.1 hPa Calm   3.2 km/h 91% 0.0 mm 0 W/m2
05:54 8.8 °C 7.6 °C 1007.1 hPa NW 3.2 km/h 9.7 km/h 92% 0.0 mm 0 W/m2
05:59 8.8 °C 7.6 °C 1007.1 hPa East 4.7 km/h 4.8 km/h 92% 0.0 mm 0 W/m2
06:04 8.8 °C 7.4 °C 1007.5 hPa NNW 4.7 km/h 8 km/h 91% 0.0 mm 0 W/m2
06:09 8.9 °C 7.5 °C 1007.5 hPa NW 4.7 km/h 8 km/h 91% 0.0 mm 0 W/m2
06:14 8.9 °C 7.5 °C 1007.5 hPa Calm   3.2 km/h 91% 0.0 mm 0 W/m2
06:19 8.9 °C 7.5 °C 1007.5 hPa NW 1.4 km/h 3.2 km/h 91% 0.0 mm 0 W/m2
06:24 8.9 °C 7.5 °C 1007.1 hPa North 3.2 km/h 3.2 km/h 91% 0.0 mm 0 W/m2
06:29 8.9 °C 7.5 °C 1007.5 hPa NNE 1.4 km/h 3.2 km/h 91% 0.0 mm 0 W/m2
06:34 8.9 °C 7.5 °C 1007.5 hPa North 1.4 km/h 3.2 km/h 91% 0.0 mm 0 W/m2
06:39 8.9 °C 7.5 °C 1007.5 hPa NW 4.7 km/h 4.8 km/h 91% 0.0 mm 0 W/m2
06:44 8.9 °C 7.5 °C 1007.5 hPa Calm   4.8 km/h 91% 0.0 mm 0 W/m2
06:49 8.9 °C 7.5 °C 1007.5 hPa Calm   4.8 km/h 91% 0.0 mm 0 W/m2
06:54 8.9 °C 7.7 °C 1007.5 hPa North 1.4 km/h 3.2 km/h 92% 0.0 mm 0 W/m2
06:59 8.9 °C 7.7 °C 1007.5 hPa NNE 1.4 km/h 3.2 km/h 92% 0.0 mm 0 W/m2
07:04 8.9 °C 7.7 °C 1007.5 hPa NW 1.4 km/h 6.4 km/h 92% 0.0 mm 0 W/m2
07:09 8.9 °C 7.7 °C 1007.5 hPa ENE 3.2 km/h 4.8 km/h 92% 0.0 mm 0 W/m2
07:14 8.9 °C 7.7 °C 1007.5 hPa SSW 3.2 km/h 3.2 km/h 92% 0.0 mm 0 W/m2
07:19 8.9 °C 7.7 °C 1007.8 hPa NNE 1.4 km/h 3.2 km/h 92% 0.0 mm 0 W/m2
07:24 8.9 °C 7.7 °C 1007.8 hPa Calm   3.2 km/h 92% 0.0 mm 0 W/m2
07:29 8.8 °C 7.6 °C 1007.8 hPa Calm   3.2 km/h 92% 0.2 mm 0 W/m2
07:34 8.8 °C 7.7 °C 1007.8 hPa NW 4.7 km/h 4.8 km/h 93% 0.2 mm 0 W/m2
07:39 8.8 °C 7.7 °C 1008.1 hPa West 3.2 km/h 11.3 km/h 93% 0.2 mm 0 W/m2
07:44 8.8 °C 7.7 °C 1008.1 hPa WNW 4.7 km/h 4.8 km/h 93% 0.5 mm 0 W/m2
07:49 8.8 °C 7.7 °C 1008.1 hPa NNW 1.4 km/h 6.4 km/h 93% 0.5 mm 7 W/m2
07:54 8.8 °C 7.7 °C 1008.1 hPa NNE 1.4 km/h 4.8 km/h 93% 0.5 mm 7 W/m2
07:59 8.8 °C 7.7 °C 1008.1 hPa NE 3.2 km/h 3.2 km/h 93% 0.5 mm 9 W/m2
08:04 8.8 °C 7.7 °C 1008.1 hPa NNE 6.4 km/h 6.4 km/h 93% 0.5 mm 11 W/m2
08:09 8.8 °C 7.7 °C 1008.1 hPa NW 4.7 km/h 4.8 km/h 93% 0.5 mm 9 W/m2
08:14 8.8 °C 7.7 °C 1008.5 hPa WNW 4.7 km/h 9.7 km/h 93% 0.5 mm 14 W/m2
08:19 8.9 °C 7.8 °C 1008.5 hPa Calm   6.4 km/h 93% 0.5 mm 14 W/m2
08:24 8.9 °C 7.8 °C 1008.5 hPa Calm   6.4 km/h 93% 0.5 mm 9 W/m2
08:29 8.9 °C 7.8 °C 1008.5 hPa Calm   3.2 km/h 93% 0.5 mm 16 W/m2
08:34 8.9 °C 7.8 °C 1008.5 hPa NNW 4.7 km/h 9.7 km/h 93% 0.5 mm 42 W/m2
08:39 8.9 °C 7.8 °C 1008.5 hPa Calm   4.8 km/h 93% 0.5 mm 35 W/m2
08:44 8.9 °C 7.8 °C 1008.5 hPa Calm   3.2 km/h 93% 0.2 mm 32 W/m2
08:49 8.9 °C 7.8 °C 1008.5 hPa WNW 4.7 km/h 9.7 km/h 93% 0.2 mm 40 W/m2
08:54 9 °C 7.9 °C 1008.5 hPa NW 4.7 km/h 4.8 km/h 93% 0.2 mm 47 W/m2
08:59 9 °C 7.9 °C 1008.5 hPa Calm   4.8 km/h 93% 0.2 mm 90 W/m2
09:04 9.1 °C 8 °C 1008.5 hPa NNW 4.7 km/h 6.4 km/h 93% 0.2 mm 90 W/m2
09:09 9.2 °C 8 °C 1008.8 hPa WNW 7.9 km/h 9.7 km/h 92% 0.2 mm 40 W/m2
09:14 9.2 °C 8 °C 1008.8 hPa WSW 4.7 km/h 6.4 km/h 92% 0.2 mm 47 W/m2
09:19 9.2 °C 8 °C 1008.8 hPa East 1.4 km/h 8 km/h 92% 0.2 mm 54 W/m2
09:24 9.2 °C 8 °C 1008.8 hPa WSW 1.4 km/h 4.8 km/h 92% 0.0 mm 86 W/m2
09:29 9.2 °C 8 °C 1008.8 hPa NE 1.4 km/h 4.8 km/h 92% 0.0 mm 169 W/m2
09:34 9.3 °C 8.1 °C 1008.8 hPa Calm   8 km/h 92% 0.0 mm 190 W/m2
09:39 9.4 °C 8 °C 1008.8 hPa NNW 9.7 km/h 12.9 km/h 91% 0.0 mm 98 W/m2
09:44 9.4 °C 8 °C 1008.8 hPa North 4.7 km/h 9.7 km/h 91% 0.0 mm 97 W/m2
09:49 9.5 °C 8.1 °C 1008.8 hPa South 3.2 km/h 11.3 km/h 91% 0.0 mm 223 W/m2
09:54 9.7 °C 8.1 °C 1008.8 hPa WNW 1.4 km/h 4.8 km/h 90% 0.0 mm 163 W/m2
09:59 9.8 °C 8.1 °C 1008.8 hPa NW 1.4 km/h 12.9 km/h 89% 0.0 mm 139 W/m2
10:04 9.8 °C 7.9 °C 1008.8 hPa WNW 6.4 km/h 12.9 km/h 88% 0.0 mm 158 W/m2
10:09 9.8 °C 8.1 °C 1008.8 hPa South 4.7 km/h 8 km/h 89% 0.0 mm 142 W/m2
10:14 9.9 °C 8 °C 1008.8 hPa NW 4.7 km/h 8 km/h 88% 0.0 mm 162 W/m2
10:19 10 °C 8.1 °C 1008.8 hPa WNW 1.4 km/h 6.4 km/h 88% 0.0 mm 137 W/m2
10:24 10.1 °C 8 °C 1008.8 hPa SW 3.2 km/h 4.8 km/h 87% 0.0 mm 176 W/m2
10:29 10.1 °C 8 °C 1009.1 hPa West 16.3 km/h 16.1 km/h 87% 0.0 mm 206 W/m2
10:35 10.1 °C 8 °C 1008.8 hPa Calm   8 km/h 87% 0.0 mm 149 W/m2
10:40 10.2 °C 8.1 °C 1009.1 hPa NW 4.7 km/h 6.4 km/h 87% 0.0 mm 109 W/m2
10:45 10.2 °C 8 °C 1009.1 hPa NNE 3.2 km/h 4.8 km/h 86% 0.0 mm 172 W/m2
10:50 10.3 °C 8.1 °C 1009.1 hPa NW 4.7 km/h 8 km/h 86% 0.0 mm 272 W/m2
10:55 10.3 °C 7.9 °C 1009.1 hPa WSW 7.9 km/h 14.5 km/h 85% 0.0 mm 178 W/m2
11:00 10.4 °C 7.6 °C 1009.1 hPa Calm   8 km/h 83% 0.0 mm 102 W/m2
11:05 10.4 °C 7.5 °C 1009.1 hPa North 4.7 km/h 6.4 km/h 82% 0.0 mm 134 W/m2
11:10 10.4 °C 7.5 °C 1009.1 hPa NNW 6.4 km/h 11.3 km/h 82% 0.0 mm 186 W/m2
11:15 10.4 °C 7.3 °C 1009.1 hPa WNW 7.9 km/h 9.7 km/h 81% 0.0 mm 181 W/m2
11:20 10.5 °C 7.4 °C 1009.5 hPa NNW 4.7 km/h 6.4 km/h 81% 0.0 mm 139 W/m2
11:25 10.5 °C 7.2 °C 1009.5 hPa West 9.7 km/h 12.9 km/h 80% 0.0 mm 113 W/m2
11:30 10.5 °C 7.4 °C 1009.1 hPa NW 6.4 km/h 11.3 km/h 81% 0.0 mm 135 W/m2
11:35 10.4 °C 7.3 °C 1009.1 hPa NW 9.7 km/h 12.9 km/h 81% 0.0 mm 165 W/m2
11:40 10.5 °C 7.4 °C 1009.1 hPa NNE 1.4 km/h 4.8 km/h 81% 0.0 mm 223 W/m2
11:45 10.6 °C 7.3 °C 1009.1 hPa NW 4.7 km/h 14.5 km/h 80% 0.0 mm 172 W/m2
11:50 10.6 °C 7.3 °C 1009.1 hPa NNW 4.7 km/h 12.9 km/h 80% 0.0 mm 169 W/m2
11:55 10.7 °C 7.6 °C 1009.1 hPa NW 3.2 km/h 6.4 km/h 81% 0.0 mm 158 W/m2
12:00 10.8 °C 7.5 °C 1009.1 hPa ESE 4.7 km/h 12.9 km/h 80% 0.0 mm 169 W/m2
12:05 10.8 °C 7.3 °C 1009.1 hPa WNW 4.7 km/h 9.7 km/h 79% 0.0 mm 183 W/m2
12:10 10.8 °C 7.1 °C 1009.1 hPa North 1.4 km/h 4.8 km/h 78% 0.0 mm 139 W/m2
12:15 10.8 °C 7.3 °C 1009.1 hPa WNW 1.4 km/h 11.3 km/h 79% 0.0 mm 77 W/m2
12:20 10.8 °C 7.3 °C 1009.1 hPa WNW 6.4 km/h 12.9 km/h 79% 0.0 mm 121 W/m2
12:25 10.8 °C 7.3 °C 1009.1 hPa NE 3.2 km/h 6.4 km/h 79% 0.0 mm 199 W/m2
12:30 10.9 °C 7.6 °C 1008.8 hPa Calm   11.3 km/h 80% 0.0 mm 290 W/m2
12:35 11.1 °C 7.6 °C 1009.1 hPa WNW 4.7 km/h 9.7 km/h 79% 0.0 mm 190 W/m2
12:40 11.2 °C 7.7 °C 1009.1 hPa West 4.7 km/h 8 km/h 79% 0.0 mm 167 W/m2
12:45 11.2 °C 7.5 °C 1009.1 hPa West 4.7 km/h 17.7 km/h 78% 0.0 mm 185 W/m2
12:50 11.2 °C 7.5 °C 1009.1 hPa WNW 6.4 km/h 11.3 km/h 78% 0.0 mm 237 W/m2
12:55 11.2 °C 7.5 °C 1009.1 hPa NE 4.7 km/h 17.7 km/h 78% 0.0 mm 148 W/m2
13:00 11.3 °C 7.4 °C 1008.8 hPa WNW 4.7 km/h 12.9 km/h 77% 0.0 mm 172 W/m2
13:05 11.3 °C 7.4 °C 1008.8 hPa NW 11.1 km/h 14.5 km/h 77% 0.0 mm 237 W/m2
13:10 11.4 °C 7.3 °C 1008.8 hPa NNW 3.2 km/h 6.4 km/h 76% 0.0 mm 207 W/m2
13:15 11.6 °C 7.3 °C 1008.8 hPa West 1.4 km/h 9.7 km/h 75% 0.0 mm 193 W/m2
13:20 11.6 °C 7.3 °C 1008.8 hPa NNW 7.9 km/h 9.7 km/h 75% 0.0 mm 127 W/m2
13:25 11.7 °C 7.2 °C 1008.8 hPa West 4.7 km/h 14.5 km/h 74% 0.0 mm 207 W/m2
13:30 11.7 °C 7.2 °C 1008.8 hPa NNW 4.7 km/h 4.8 km/h 74% 0.0 mm 195 W/m2
13:35 11.8 °C 7.5 °C 1008.8 hPa WNW 4.7 km/h 4.8 km/h 75% 0.0 mm 197 W/m2
13:40 11.8 °C 7.1 °C 1008.5 hPa South 1.4 km/h 4.8 km/h 73% 0.0 mm 269 W/m2
13:45 11.9 °C 7.4 °C 1008.5 hPa East 3.2 km/h 8 km/h 74% 0.0 mm 190 W/m2
13:50 11.9 °C 7.2 °C 1008.5 hPa NNW 9.7 km/h 12.9 km/h 73% 0.0 mm 97 W/m2
13:55 11.9 °C 7.2 °C 1008.5 hPa West 13 km/h 20.9 km/h 73% 0.0 mm 121 W/m2
14:00 11.8 °C 7.1 °C 1008.5 hPa Calm   8 km/h 73% 0.0 mm 121 W/m2
14:05 11.7 °C 7.2 °C 1008.5 hPa West 4.7 km/h 20.9 km/h 74% 0.0 mm 86 W/m2
14:10 11.6 °C 6.9 °C 1008.5 hPa Calm   9.7 km/h 73% 0.0 mm 74 W/m2
14:15 11.6 °C 7.1 °C 1008.5 hPa East 6.4 km/h 8 km/h 74% 0.0 mm 91 W/m2
14:20 11.6 °C 7.3 °C 1008.5 hPa NE 3.2 km/h 4.8 km/h 75% 0.0 mm 116 W/m2
14:25 11.7 °C 7.4 °C 1008.5 hPa NNW 1.4 km/h 4.8 km/h 75% 0.0 mm 221 W/m2
14:30 11.8 °C 7.3 °C 1008.5 hPa North 6.4 km/h 12.9 km/h 74% 0.0 mm 220 W/m2
14:35 11.8 °C 6.9 °C 1008.5 hPa WNW 1.4 km/h 11.3 km/h 72% 0.0 mm 178 W/m2
14:40 11.9 °C 6.8 °C 1008.1 hPa ESE 1.4 km/h 6.4 km/h 71% 0.0 mm 132 W/m2
14:45 12 °C 6.9 °C 1008.1 hPa Calm   1.6 km/h 71% 0.0 mm 97 W/m2
14:50 12 °C 6.7 °C 1008.1 hPa West 3.2 km/h 6.4 km/h 70% 0.0 mm 125 W/m2
14:55 11.9 °C 6.8 °C 1008.1 hPa West 6.4 km/h 6.4 km/h 71% 0.0 mm 84 W/m2
15:00 11.9 °C 7 °C 1008.1 hPa NE 4.7 km/h 6.4 km/h 72% 0.0 mm 105 W/m2
15:05 11.9 °C 7 °C 1008.1 hPa ESE 4.7 km/h 12.9 km/h 72% 0.0 mm 125 W/m2
15:10 11.9 °C 7.2 °C 1008.1 hPa NNW 3.2 km/h 6.4 km/h 73% 0.0 mm 118 W/m2
15:15 11.8 °C 7.1 °C 1008.1 hPa ENE 3.2 km/h 4.8 km/h 73% 0.0 mm 114 W/m2
15:20 11.8 °C 7.1 °C 1008.1 hPa WNW 4.7 km/h 4.8 km/h 73% 0.0 mm 114 W/m2
15:25 11.8 °C 7.1 °C 1007.8 hPa NW 6.4 km/h 9.7 km/h 73% 0.0 mm 120 W/m2
15:30 11.8 °C 7.1 °C 1007.8 hPa ENE 6.4 km/h 6.4 km/h 73% 0.0 mm 141 W/m2
15:35 11.9 °C 7.4 °C 1007.8 hPa NW 4.7 km/h 9.7 km/h 74% 0.0 mm 163 W/m2
15:40 12 °C 7.3 °C 1007.8 hPa NW 1.4 km/h 6.4 km/h 73% 0.0 mm 104 W/m2
15:45 12 °C 7.1 °C 1007.8 hPa North 6.4 km/h 8 km/h 72% 0.0 mm 114 W/m2
15:50 12 °C 7.1 °C 1007.8 hPa NE 4.7 km/h 9.7 km/h 72% 0.0 mm 111 W/m2
15:55 12 °C 7.3 °C 1007.8 hPa North 3.2 km/h 4.8 km/h 73% 0.0 mm 90 W/m2
16:00 12 °C 7.3 °C 1007.8 hPa North 4.7 km/h 6.4 km/h 73% 0.0 mm 72 W/m2
16:05 11.9 °C 7 °C 1007.8 hPa NW 3.2 km/h 8 km/h 72% 0.0 mm 72 W/m2
16:10 11.9 °C 7.2 °C 1007.8 hPa ENE 6.4 km/h 8 km/h 73% 0.0 mm 62 W/m2
16:15 11.8 °C 7.1 °C 1007.8 hPa North 4.7 km/h 6.4 km/h 73% 0.0 mm 37 W/m2
16:20 11.8 °C 7.1 °C 1007.8 hPa NNE 3.2 km/h 4.8 km/h 73% 0.0 mm 28 W/m2
16:25 11.7 °C 7.2 °C 1007.5 hPa NE 3.2 km/h 6.4 km/h 74% 0.0 mm 33 W/m2
16:30 11.7 °C 7.2 °C 1007.5 hPa NE 1.4 km/h 3.2 km/h 74% 0.0 mm 28 W/m2
16:35 11.7 °C 7.2 °C 1007.5 hPa North 1.4 km/h 6.4 km/h 74% 0.0 mm 14 W/m2
16:40 11.7 °C 7.2 °C 1007.5 hPa ENE 3.2 km/h 6.4 km/h 74% 0.0 mm 12 W/m2
16:45 11.6 °C 7.3 °C 1007.5 hPa NE 4.7 km/h 8 km/h 75% 0.0 mm 11 W/m2
16:50 11.6 °C 7.3 °C 1007.5 hPa NNE 4.7 km/h 8 km/h 75% 0.0 mm 11 W/m2
16:55 11.6 °C 7.3 °C 1007.5 hPa ENE 3.2 km/h 4.8 km/h 75% 0.0 mm 7 W/m2
17:00 11.5 °C 7.2 °C 1007.5 hPa ENE 4.7 km/h 4.8 km/h 75% 0.0 mm 5 W/m2
17:05 11.5 °C 7.2 °C 1007.5 hPa ESE 6.4 km/h 9.7 km/h 75% 0.0 mm 5 W/m2
17:10 11.4 °C 7.1 °C 1007.5 hPa NE 1.4 km/h 4.8 km/h 75% 0.0 mm 5 W/m2
17:15 11.4 °C 7.1 °C 1007.5 hPa Calm   8 km/h 75% 0.0 mm 0 W/m2
17:20 11.4 °C 7.1 °C 1007.5 hPa ENE 1.4 km/h 4.8 km/h 75% 0.0 mm 0 W/m2
17:25 11.4 °C 7.1 °C 1007.5 hPa NE 4.7 km/h 6.4 km/h 75% 0.0 mm 0 W/m2
17:30 11.4 °C 7.1 °C 1007.5 hPa ENE 6.4 km/h 6.4 km/h 75% 0.0 mm 0 W/m2
17:35 11.3 °C 7.2 °C 1007.5 hPa ESE 1.4 km/h 6.4 km/h 76% 0.0 mm 0 W/m2
17:40 11.3 °C 7.2 °C 1007.5 hPa ENE 1.4 km/h 6.4 km/h 76% 0.0 mm 0 W/m2
17:45 11.3 °C 7.4 °C 1007.5 hPa ENE 3.2 km/h 6.4 km/h 77% 0.0 mm 0 W/m2
17:50 11.2 °C 7.3 °C 1007.5 hPa NE 3.2 km/h 6.4 km/h 77% 0.0 mm 0 W/m2
17:55 11.2 °C 7.5 °C 1007.5 hPa East 4.7 km/h 6.4 km/h 78% 0.0 mm 0 W/m2
18:00 11.2 °C 7.5 °C 1007.5 hPa NNE 4.7 km/h 4.8 km/h 78% 0.0 mm 0 W/m2
18:05 11.2 °C 7.5 °C 1007.5 hPa East 4.7 km/h 9.7 km/h 78% 0.0 mm 0 W/m2
18:10 11.2 °C 7.7 °C 1007.5 hPa NE 6.4 km/h 8 km/h 79% 0.0 mm 0 W/m2
18:15 11.2 °C 7.7 °C 1007.5 hPa NNW 4.7 km/h 6.4 km/h 79% 0.0 mm 0 W/m2
18:20 11.2 °C 7.7 °C 1007.5 hPa NNE 3.2 km/h 4.8 km/h 79% 0.0 mm 0 W/m2
18:25 11.2 °C 7.7 °C 1007.5 hPa East 3.2 km/h 9.7 km/h 79% 0.0 mm 0 W/m2
18:30 11.2 °C 7.7 °C 1007.5 hPa NE 4.7 km/h 8 km/h 79% 0.0 mm 0 W/m2
18:35 11.2 °C 7.9 °C 1007.5 hPa NNW 3.2 km/h 6.4 km/h 80% 0.0 mm 0 W/m2
18:40 11.2 °C 7.9 °C 1007.5 hPa NE 3.2 km/h 8 km/h 80% 0.0 mm 0 W/m2
18:45 11.1 °C 8 °C 1007.5 hPa NNE 1.4 km/h 6.4 km/h 81% 0.0 mm 0 W/m2
18:50 11 °C 7.9 °C 1007.5 hPa ENE 6.4 km/h 8 km/h 81% 0.0 mm 0 W/m2
18:55 11 °C 7.9 °C 1007.5 hPa NNW 1.4 km/h 1.6 km/h 81% 0.0 mm 0 W/m2
19:00 10.9 °C 7.8 °C 1007.5 hPa NE 1.4 km/h 8 km/h 81% 0.0 mm 0 W/m2
19:05 10.9 °C 7.8 °C 1007.5 hPa ENE 3.2 km/h 9.7 km/h 81% 0.0 mm 0 W/m2
19:10 10.9 °C 7.8 °C 1007.5 hPa NNE 1.4 km/h 4.8 km/h 81% 0.0 mm 0 W/m2
19:15 10.9 °C 7.9 °C 1007.5 hPa Calm   1.6 km/h 82% 0.0 mm 0 W/m2
19:20 10.9 °C 7.8 °C 1007.5 hPa NNE 4.7 km/h 6.4 km/h 81% 0.0 mm 0 W/m2
19:25 11 °C 7.9 °C 1007.1 hPa NNE 1.4 km/h 4.8 km/h 81% 0.0 mm 0 W/m2
19:30 11 °C 8 °C 1007.1 hPa ESE 1.4 km/h 8 km/h 82% 0.0 mm 0 W/m2
19:35 10.9 °C 7.9 °C 1007.1 hPa ENE 4.7 km/h 6.4 km/h 82% 0.0 mm 0 W/m2
19:40 10.9 °C 7.9 °C 1007.1 hPa NE 6.4 km/h 8 km/h 82% 0.0 mm 0 W/m2
19:45 10.9 °C 7.9 °C 1007.1 hPa NE 4.7 km/h 11.3 km/h 82% 0.0 mm 0 W/m2
19:50 10.9 °C 7.9 °C 1007.1 hPa North 1.4 km/h 6.4 km/h 82% 0.0 mm 0 W/m2
19:55 10.9 °C 8.1 °C 1007.1 hPa North 4.7 km/h 6.4 km/h 83% 0.0 mm 0 W/m2
20:00 10.9 °C 8.1 °C 1006.8 hPa NE 3.2 km/h 6.4 km/h 83% 0.0 mm 0 W/m2
20:05 10.9 °C 8.1 °C 1006.8 hPa ENE 3.2 km/h 6.4 km/h 83% 0.0 mm 0 W/m2
20:10 10.9 °C 8.1 °C 1006.8 hPa NE 4.7 km/h 11.3 km/h 83% 0.0 mm 0 W/m2
20:15 10.9 °C 8.1 °C 1006.8 hPa NE 7.9 km/h 11.3 km/h 83% 0.0 mm 0 W/m2
20:20 11 °C 8 °C 1006.8 hPa NE 7.9 km/h 11.3 km/h 82% 0.0 mm 0 W/m2
20:25 11.1 °C 8.1 °C 1006.8 hPa NE 3.2 km/h 9.7 km/h 82% 0.0 mm 0 W/m2
20:30 11.1 °C 8.1 °C 1006.8 hPa West 4.7 km/h 8 km/h 82% 0.0 mm 0 W/m2
20:35 11 °C 8.2 °C 1006.8 hPa NE 3.2 km/h 8 km/h 83% 0.0 mm 0 W/m2
20:40 10.8 °C 8.4 °C 1006.8 hPa NNE 3.2 km/h 6.4 km/h 85% 0.0 mm 0 W/m2
20:45 10.7 °C 8.3 °C 1006.8 hPa NE 3.2 km/h 14.5 km/h 85% 0.0 mm 0 W/m2
20:50 10.6 °C 8.4 °C 1006.8 hPa NNW 1.4 km/h 9.7 km/h 86% 0.0 mm 0 W/m2
20:55 10.6 °C 8.5 °C 1006.8 hPa ENE 3.2 km/h 3.2 km/h 87% 0.0 mm 0 W/m2
21:00 10.6 °C 8.5 °C 1006.8 hPa North 3.2 km/h 6.4 km/h 87% 0.0 mm 0 W/m2
21:05 10.6 °C 8.5 °C 1006.8 hPa Calm   6.4 km/h 87% 0.0 mm 0 W/m2
21:10 10.7 °C 8.5 °C 1006.8 hPa East 1.4 km/h 11.3 km/h 86% 0.0 mm 0 W/m2
21:15 10.8 °C 8.6 °C 1006.4 hPa NNW 6.4 km/h 6.4 km/h 86% 0.0 mm 0 W/m2
21:20 10.8 °C 8.4 °C 1006.4 hPa NNE 1.4 km/h 12.9 km/h 85% 0.0 mm 0 W/m2
21:25 10.9 °C 8.5 °C 1006.8 hPa West 6.4 km/h 11.3 km/h 85% 0.0 mm 0 W/m2
21:30 11.1 °C 8.7 °C 1006.8 hPa Calm   6.4 km/h 85% 0.0 mm 0 W/m2
21:35 11.1 °C 8.7 °C 1006.8 hPa NNE 3.2 km/h 6.4 km/h 85% 0.0 mm 0 W/m2
21:40 11.1 °C 8.7 °C 1006.8 hPa NW 4.7 km/h 12.9 km/h 85% 0.0 mm 0 W/m2
21:45 11.1 °C 8.7 °C 1006.8 hPa NNE 3.2 km/h 6.4 km/h 85% 0.0 mm 0 W/m2
21:50 11.2 °C 8.8 °C 1006.8 hPa NW 4.7 km/h 16.1 km/h 85% 0.0 mm 0 W/m2
21:55 11.2 °C 8.8 °C 1006.4 hPa NNW 3.2 km/h 12.9 km/h 85% 0.0 mm 0 W/m2
22:00 11.2 °C 8.8 °C 1006.8 hPa North 4.7 km/h 14.5 km/h 85% 0.0 mm 0 W/m2
22:05 11.2 °C 8.8 °C 1006.4 hPa North 3.2 km/h 9.7 km/h 85% 0.0 mm 0 W/m2
22:10 11.2 °C 8.8 °C 1006.4 hPa NNW 1.4 km/h 14.5 km/h 85% 0.0 mm 0 W/m2
22:15 11.2 °C 8.9 °C 1006.4 hPa East 6.4 km/h 6.4 km/h 86% 0.0 mm 0 W/m2
22:20 11.2 °C 8.9 °C 1006.8 hPa ENE 9.7 km/h 9.7 km/h 86% 0.0 mm 0 W/m2
22:25 11.1 °C 9 °C 1006.4 hPa ENE 11.1 km/h 16.1 km/h 87% 0.0 mm 0 W/m2
22:30 10.9 °C 9 °C 1006.8 hPa NE 1.4 km/h 9.7 km/h 88% 0.0 mm 0 W/m2
22:35 10.9 °C 9.2 °C 1006.4 hPa NNE 4.7 km/h 11.3 km/h 89% 0.0 mm 0 W/m2
22:40 10.8 °C 9.1 °C 1006.4 hPa North 4.7 km/h 6.4 km/h 89% 0.0 mm 0 W/m2
22:45 10.8 °C 9.1 °C 1006.8 hPa WNW 6.4 km/h 6.4 km/h 89% 0.0 mm 0 W/m2
22:50 10.8 °C 9.2 °C 1006.8 hPa NNE 4.7 km/h 12.9 km/h 90% 0.2 mm 0 W/m2
22:55 10.7 °C 9.1 °C 1006.4 hPa NE 4.7 km/h 9.7 km/h 90% 0.2 mm 0 W/m2
23:00 10.7 °C 9.1 °C 1006.4 hPa NNW 3.2 km/h 12.9 km/h 90% 0.2 mm 0 W/m2
23:05 10.7 °C 9.3 °C 1006.4 hPa NW 3.2 km/h 3.2 km/h 91% 0.2 mm 0 W/m2
23:10 10.7 °C 9.3 °C 1006.4 hPa SE 11.1 km/h 11.3 km/h 91% 0.2 mm 0 W/m2
23:15 10.7 °C 9.3 °C 1006.4 hPa NNW 4.7 km/h 8 km/h 91% 0.2 mm 0 W/m2
23:20 10.6 °C 9.2 °C 1006.8 hPa WNW 3.2 km/h 12.9 km/h 91% 0.2 mm 0 W/m2
23:25 10.6 °C 9.4 °C 1006.4 hPa NW 9.7 km/h 12.9 km/h 92% 0.2 mm 0 W/m2
23:30 10.6 °C 9.4 °C 1006.4 hPa NW 4.7 km/h 12.9 km/h 92% 0.2 mm 0 W/m2
23:35 10.6 °C 9.4 °C 1006.4 hPa NE 6.4 km/h 9.7 km/h 92% 0.5 mm 0 W/m2
23:40 10.5 °C 9.4 °C 1006.4 hPa Calm   12.9 km/h 93% 0.5 mm 0 W/m2
23:45 10.5 °C 9.4 °C 1006.4 hPa NNE 7.9 km/h 8 km/h 93% 0.5 mm 0 W/m2
23:50 10.5 °C 9.4 °C 1006.4 hPa NNE 1.4 km/h 8 km/h 93% 0.5 mm 0 W/m2
23:55 10.5 °C 9.4 °C 1006.4 hPa NNE 3.2 km/h 6.4 km/h 93% 0.5 mm 0 W/m2
Juneau County Weather
Compliments of Weather Underground - 4 mb